Time;durP1;ratioP1;P1;durP2;ratioP2;P2;SDS_P1;SDS_P2;PMS_P1;PMS_P2;Temp;Humidity;BMP_temperature;BMP_pressure;BME280_temperature;BME280_humidity;BME280_pressure;Samples;Min_cycle;Max_cycle;Signal;HPM_P1;HPM_P2
2022/03/22 00:01:43;;;;;;;28.63;13.83;;;2.80;99.90;1.70;102559;;;;583420;241;24077;-83
2022/03/22 00:04:10;;;;;;;25.20;11.87;;;2.80;99.80;1.70;102556;;;;585211;241;24071;-82
2022/03/22 00:06:39;;;;;;;31.63;14.40;;;2.80;99.20;1.80;102558;;;;585271;241;24118;-80
2022/03/22 00:09:11;;;;;;;23.80;13.00;;;2.80;99.20;1.80;102551;;;;584689;245;24058;-83
2022/03/22 00:11:35;;;;;;;25.90;12.33;;;2.90;99.10;1.90;102552;;;;583760;241;24068;-83
2022/03/22 00:14:06;;;;;;;32.73;13.13;;;2.90;98.70;1.90;102558;;;;584139;241;24023;-83
2022/03/22 00:16:31;;;;;;;30.23;12.30;;;3.00;98.30;2.00;102554;;;;584907;241;24024;-83
2022/03/22 00:18:59;;;;;;;27.67;14.37;;;3.10;97.70;2.00;102556;;;;592757;238;24032;-81
2022/03/22 00:21:28;;;;;;;23.20;12.10;;;3.00;97.70;2.00;102555;;;;595219;238;24047;-83
2022/03/22 00:23:55;;;;;;;25.03;12.00;;;3.10;97.50;2.00;102551;;;;604708;238;24102;-81
2022/03/22 00:26:23;;;;;;;20.10;10.73;;;3.00;97.30;2.00;102553;;;;595649;238;24069;-82
2022/03/22 00:28:51;;;;;;;31.00;16.60;;;3.00;97.10;2.10;102549;;;;591134;238;34978;-78
2022/03/22 00:31:19;;;;;;;24.57;14.07;;;3.10;97.00;2.10;102561;;;;595894;238;24059;-83
2022/03/22 00:33:48;;;;;;;20.83;11.73;;;3.20;96.40;2.10;102556;;;;595383;238;24215;-80
2022/03/22 00:36:16;;;;;;;23.77;11.87;;;3.20;96.10;2.10;102546;;;;594563;238;24079;-82
2022/03/22 00:38:44;;;;;;;20.17;11.47;;;3.20;96.10;2.20;102558;;;;594798;238;24040;-79
2022/03/22 00:41:13;;;;;;;25.20;11.60;;;3.20;95.80;2.20;102554;;;;595089;238;24070;-77
2022/03/22 00:43:43;;;;;;;25.30;11.27;;;3.30;95.50;2.20;102547;;;;595608;238;24292;-76
2022/03/22 00:46:11;;;;;;;19.13;10.37;;;3.20;95.30;2.20;102551;;;;595534;238;24147;-77
2022/03/22 00:48:36;;;;;;;21.73;10.23;;;3.30;95.20;2.20;102549;;;;595017;238;24095;-79
2022/03/22 00:51:04;;;;;;;23.40;11.30;;;3.30;94.90;2.20;102554;;;;595003;238;25115;-82
2022/03/22 00:53:32;;;;;;;21.27;10.47;;;3.30;94.70;2.30;102542;;;;594519;238;24104;-80
2022/03/22 00:56:01;;;;;;;18.63;9.83;;;3.30;95.00;2.30;102546;;;;594497;238;24060;-82
2022/03/22 00:58:28;;;;;;;23.30;11.47;;;3.30;94.40;2.30;102547;;;;594377;238;24143;-81
2022/03/22 01:00:56;;;;;;;24.43;10.03;;;3.40;94.30;2.30;102549;;;;594233;238;24048;-77
2022/03/22 01:03:27;;;;;;;21.33;10.90;;;3.40;94.00;2.30;102549;;;;593695;238;24142;-78
2022/03/22 01:05:52;;;;;;;22.90;10.13;;;3.40;94.00;2.30;102553;;;;593796;238;24033;-80
2022/03/22 01:08:23;;;;;;;17.97;10.13;;;3.40;93.80;2.30;102550;;;;594222;238;24092;-83
2022/03/22 01:10:52;;;;;;;23.43;11.03;;;3.40;93.70;2.30;102540;;;;593385;238;24052;-77
2022/03/22 01:13:16;;;;;;;18.20;9.70;;;3.40;93.60;2.30;102542;;;;593639;238;24123;-77
2022/03/22 01:15:44;;;;;;;21.50;10.43;;;3.40;93.50;2.40;102538;;;;593732;238;24067;-78
2022/03/22 01:18:15;;;;;;;23.37;10.27;;;3.40;93.40;2.40;102540;;;;594063;238;24110;-82
2022/03/22 01:20:40;;;;;;;17.17;10.07;;;3.40;93.20;2.40;102533;;;;597617;233;24151;-84
2022/03/22 01:23:11;;;;;;;19.53;10.37;;;3.40;93.10;2.40;102534;;;;584637;241;24060;-83
2022/03/22 01:25:38;;;;;;;18.43;9.83;;;3.40;93.00;2.40;102537;;;;594736;240;24049;-80
2022/03/22 01:28:06;;;;;;;26.47;11.03;;;3.50;92.90;2.40;102529;;;;586361;241;24064;-82
2022/03/22 01:30:31;;;;;;;17.57;10.30;;;3.50;92.80;2.40;102534;;;;586301;241;24139;-82
2022/03/22 01:33:03;;;;;;;19.40;9.30;;;3.50;92.90;2.40;102532;;;;586834;241;24117;-78
2022/03/22 01:35:28;;;;;;;19.73;9.80;;;3.50;92.60;2.40;102529;;;;593197;241;24064;-82
2022/03/22 01:37:58;;;;;;;21.37;10.40;;;3.40;92.50;2.40;102533;;;;586179;241;24049;-81
2022/03/22 01:40:24;;;;;;;15.37;9.43;;;3.50;92.50;2.40;102532;;;;585899;241;24076;-79
2022/03/22 01:42:54;;;;;;;26.42;14.52;;;3.50;92.40;2.40;102527;;;;581221;241;35116;-78
2022/03/22 01:45:19;;;;;;;29.73;11.53;;;3.50;92.50;2.40;102532;;;;592540;241;24068;-83
2022/03/22 01:47:52;;;;;;;17.80;11.37;;;3.50;92.30;2.50;102538;;;;585729;241;24073;-77
2022/03/22 01:50:16;;;;;;;20.60;10.07;;;3.50;92.30;2.50;102535;;;;584974;241;24069;-78
2022/03/22 01:52:44;;;;;;;19.77;10.23;;;3.50;92.10;2.50;102537;;;;584924;241;24113;-77
2022/03/22 01:55:12;;;;;;;21.87;9.43;;;3.60;92.00;2.50;102526;;;;585217;241;24079;-77
2022/03/22 01:57:43;;;;;;;17.73;9.77;;;3.60;91.80;2.50;102533;;;;583717;241;24105;-77
2022/03/22 02:00:08;;;;;;;24.27;9.30;;;3.60;91.80;2.50;102534;;;;584984;241;24104;-77
2022/03/22 02:08:11;;;;;;;25.03;10.53;;;3.50;91.70;2.40;102530;;;;585068;241;24160;-83
2022/03/22 02:10:36;;;;;;;18.87;10.30;;;3.50;91.70;2.40;102526;;;;585186;241;24114;-81
2022/03/22 02:13:06;;;;;;;17.20;9.20;;;3.50;91.70;2.40;102534;;;;585089;241;24074;-81
2022/03/22 02:15:32;;;;;;;25.33;10.80;;;3.50;91.70;2.40;102527;;;;585125;241;24081;-78
2022/03/22 02:18:00;;;;;;;20.37;9.53;;;3.50;91.70;2.40;102533;;;;585186;241;24178;-77
2022/03/22 02:20:27;;;;;;;18.20;8.83;;;3.50;91.60;2.50;102532;;;;594732;241;24117;-82
2022/03/22 02:23:04;;;;;;;20.70;8.90;;;3.50;91.50;2.50;102530;;;;585226;241;24048;-82
2022/03/22 02:25:35;;;;;;;21.60;10.10;;;3.50;91.50;2.50;102527;;;;585321;241;24046;-80
2022/03/22 02:28:00;;;;;;;15.27;8.77;;;3.50;91.40;2.50;102524;;;;582639;243;24086;-81
2022/03/22 02:30:32;;;;;;;21.30;9.93;;;3.50;91.30;2.50;102534;;;;593000;238;24081;-81
2022/03/22 02:32:56;;;;;;;19.47;9.77;;;3.50;91.30;2.50;102530;;;;594353;238;24047;-80
2022/03/22 02:35:28;;;;;;;14.63;9.73;;;3.50;91.20;2.50;102526;;;;604245;238;24029;-80
2022/03/22 02:37:52;;;;;;;22.53;9.57;;;3.60;91.10;2.60;102533;;;;595686;237;24043;-80
2022/03/22 02:40:23;;;;;;;16.17;8.73;;;3.60;91.00;2.50;102529;;;;595498;237;24039;-77
2022/03/22 02:42:49;;;;;;;15.17;8.33;;;3.60;90.90;2.50;102523;;;;595516;238;24193;-82
2022/03/22 02:45:16;;;;;;;18.27;8.73;;;3.60;90.80;2.60;102525;;;;602206;238;24094;-82
2022/03/22 02:47:47;;;;;;;19.70;9.40;;;3.60;90.70;2.60;102523;;;;590930;241;24064;-82
2022/03/22 02:50:12;;;;;;;20.00;9.43;;;3.60;90.60;2.70;102519;;;;586441;241;24060;-81
2022/03/22 02:52:43;;;;;;;21.77;9.77;;;3.70;90.50;2.60;102521;;;;584866;241;24133;-83
2022/03/22 02:55:11;;;;;;;16.67;9.00;;;3.60;90.40;2.70;102520;;;;586464;241;24123;-77
2022/03/22 02:57:36;;;;;;;16.53;8.97;;;3.70;90.40;2.70;102523;;;;595568;241;24084;-78
2022/03/22 03:00:05;;;;;;;21.23;11.13;;;3.70;90.30;2.70;102528;;;;586724;237;24080;-80
2022/03/22 03:02:33;;;;;;;19.87;8.83;;;3.70;90.20;2.70;102531;;;;595788;237;24143;-81
2022/03/22 03:05:01;;;;;;;23.23;10.57;;;3.70;90.20;2.70;102535;;;;586313;241;24084;-78
2022/03/22 03:07:29;;;;;;;18.63;9.63;;;3.70;90.20;2.70;102535;;;;586854;241;24085;-83
2022/03/22 03:10:02;;;;;;;19.73;9.13;;;3.70;90.10;2.70;102533;;;;586693;241;24137;-82
2022/03/22 03:12:26;;;;;;;17.57;9.80;;;3.70;90.10;2.80;102536;;;;595245;237;24083;-77
2022/03/22 03:14:56;;;;;;;22.50;11.00;;;3.80;90.40;2.90;102536;;;;586897;241;24043;-77
2022/03/22 03:17:22;;;;;;;23.20;11.03;;;3.80;90.40;2.80;102537;;;;586620;241;24074;-77
2022/03/22 03:19:50;;;;;;;20.73;10.80;;;3.80;90.50;2.70;102537;;;;586924;241;24069;-77
2022/03/22 03:22:18;;;;;;;21.17;10.37;;;3.60;90.80;2.50;102535;;;;586752;241;24104;-76
2022/03/22 03:24:47;;;;;;;20.50;11.33;;;3.40;91.10;2.40;102532;;;;586761;241;24161;-76
2022/03/22 03:27:18;;;;;;;20.63;10.60;;;3.40;91.10;2.20;102531;;;;586674;241;24069;-81
2022/03/22 03:29:45;;;;;;;25.53;12.67;;;3.30;91.50;2.00;102530;;;;586302;241;24075;-80
2022/03/22 03:32:14;;;;;;;23.40;11.77;;;3.10;91.60;1.90;102528;;;;585840;241;24078;-79
2022/03/22 03:34:39;;;;;;;27.25;16.33;;;3.00;92.00;1.70;102537;;;;580785;241;35271;-82
2022/03/22 03:37:06;;;;;;;28.43;14.27;;;2.70;92.90;1.50;102532;;;;586319;241;24058;-78
2022/03/22 03:39:37;;;;;;;21.03;11.33;;;2.60;93.40;1.40;102531;;;;586218;241;24071;-80
2022/03/22 03:42:02;;;;;;;18.77;10.50;;;2.40;93.60;1.30;102523;;;;585936;241;24056;-78
2022/03/22 03:47:20;;;;;;;19.47;9.83;;;2.20;94.30;1.10;102521;;;;574740;242;24211;-84
2022/03/22 03:49:48;;;;;;;23.97;12.67;;;2.10;94.60;1.00;102528;;;;566228;249;24118;-85
2022/03/22 03:52:19;;;;;;;29.87;13.20;;;2.00;94.80;1.00;102529;;;;566851;249;24191;-84
2022/03/22 03:54:51;;;;;;;35.30;14.37;;;2.00;94.90;0.90;102534;;;;567493;249;24172;-82
2022/03/22 03:57:14;;;;;;;36.93;16.93;;;2.00;95.10;0.90;102531;;;;574935;245;24138;-84
2022/03/22 03:59:46;;;;;;;29.57;16.20;;;1.90;95.30;0.90;102529;;;;567422;249;24114;-84
2022/03/22 04:02:10;;;;;;;34.27;14.40;;;1.90;95.80;0.80;102527;;;;555635;254;24152;-84
2022/03/22 04:04:42;;;;;;;36.57;15.90;;;1.90;95.90;0.80;102527;;;;556011;254;24154;-83
2022/03/22 04:07:09;;;;;;;35.90;16.40;;;1.80;96.00;0.70;102520;;;;576039;245;24152;-83
2022/03/22 04:09:34;;;;;;;34.53;17.07;;;1.80;96.20;0.60;102520;;;;574609;245;24176;-84
2022/03/22 04:12:02;;;;;;;33.37;16.63;;;1.70;96.40;0.50;102523;;;;556147;254;24142;-85
2022/03/22 04:14:30;;;;;;;36.07;21.57;;;1.60;96.80;0.50;102526;;;;566145;249;24112;-84
2022/03/22 04:16:58;;;;;;;33.77;21.97;;;1.60;97.20;0.40;102524;;;;566047;249;24116;-84
2022/03/22 04:19:26;;;;;;;36.83;21.73;;;1.50;97.80;0.40;102522;;;;566279;249;24139;-84
2022/03/22 04:21:54;;;;;;;36.93;22.07;;;1.50;98.30;0.40;102527;;;;570143;248;25181;-84
2022/03/22 04:24:22;;;;;;;33.33;21.07;;;1.50;98.50;0.30;102522;;;;575601;249;24192;-84
2022/03/22 04:26:49;;;;;;;34.73;22.13;;;1.50;98.60;0.30;102529;;;;565886;249;24095;-85
2022/03/22 04:34:50;;;;;;;31.20;21.10;;;1.30;99.70;0.20;102526;;;;566274;249;24136;-84
2022/03/22 04:37:19;;;;;;;36.47;21.97;;;1.30;99.80;0.20;102517;;;;575901;249;24120;-85
2022/03/22 04:39:50;;;;;;;39.67;22.50;;;1.30;99.90;0.20;102518;;;;574864;249;24115;-85
2022/03/22 04:42:14;;;;;;;41.13;24.53;;;1.30;99.90;0.10;102519;;;;566162;249;24118;-84
2022/03/22 04:44:44;;;;;;;40.27;24.53;;;1.30;99.90;0.10;102515;;;;565312;249;24111;-85
2022/03/22 04:47:10;;;;;;;41.40;25.27;;;1.20;99.90;0.10;102517;;;;566209;249;24122;-85
2022/03/22 04:49:42;;;;;;;32.97;22.10;;;1.20;99.90;0.10;102516;;;;574584;249;24152;-85
2022/03/22 04:57:39;;;;;;;35.27;22.87;;;1.30;99.90;0.30;102514;;;;565787;249;24110;-83
2022/03/22 05:00:10;;;;;;;37.70;22.57;;;1.40;99.90;0.40;102516;;;;566151;249;24162;-83
2022/03/22 05:02:35;;;;;;;34.50;21.17;;;1.40;99.90;0.40;102516;;;;566851;249;24136;-83
2022/03/22 05:05:03;;;;;;;37.43;22.07;;;1.50;99.90;0.40;102514;;;;567885;249;24106;-82
2022/03/22 05:07:31;;;;;;;32.13;21.20;;;1.50;99.90;0.50;102519;;;;566945;249;24127;-83
2022/03/22 05:09:59;;;;;;;36.53;21.33;;;1.50;99.90;0.50;102521;;;;556052;254;24130;-82
2022/03/22 05:12:26;;;;;;;35.80;20.30;;;1.60;99.90;0.60;102522;;;;566921;249;24172;-82
2022/03/22 05:14:58;;;;;;;32.27;15.20;;;1.70;99.90;0.60;102524;;;;555638;254;24127;-82
2022/03/22 05:17:24;;;;;;;25.50;14.43;;;1.70;99.90;0.70;102520;;;;555908;254;24149;-84
2022/03/22 05:19:52;;;;;;;24.80;14.43;;;1.70;99.90;0.80;102525;;;;556136;254;24132;-84
2022/03/22 05:22:22;;;;;;;32.33;15.53;;;1.80;99.90;0.90;102530;;;;555664;254;24153;-83
2022/03/22 05:24:48;;;;;;;29.73;14.87;;;1.90;99.90;1.00;102528;;;;556986;250;24195;-83
2022/03/22 05:27:18;;;;;;;29.77;14.63;;;2.00;99.90;1.00;102528;;;;564053;249;24180;-84
2022/03/22 05:29:44;;;;;;;35.23;14.97;;;2.10;99.90;1.20;102525;;;;556018;254;24194;-84
2022/03/22 05:32:11;;;;;;;24.17;13.60;;;2.20;99.90;1.30;102525;;;;566100;249;24128;-83
2022/03/22 05:34:39;;;;;;;37.37;14.70;;;2.30;99.90;1.40;102528;;;;566520;249;24122;-83
2022/03/22 05:37:08;;;;;;;29.20;14.47;;;2.40;99.90;1.60;102529;;;;566352;249;24095;-83
2022/03/22 05:39:35;;;;;;;28.70;13.80;;;2.50;99.90;1.70;102530;;;;566301;249;24103;-83
2022/03/22 05:42:04;;;;;;;28.97;14.83;;;2.70;99.90;1.80;102531;;;;566370;249;24113;-83
2022/03/22 05:44:31;;;;;;;29.47;13.83;;;2.80;99.90;1.90;102539;;;;566141;249;24111;-83
2022/03/22 05:46:59;;;;;;;30.40;15.40;;;2.90;99.90;2.80;102532;;;;566895;249;24134;-83
2022/03/22 05:49:27;;;;;;;32.77;14.97;;;3.60;99.90;4.80;102538;;;;566343;249;24120;-84
2022/03/22 05:51:58;;;;;;;33.53;14.67;;;5.20;99.40;7.10;102546;;;;566076;249;24233;-84
2022/03/22 05:54:29;;;;;;;33.37;16.37;;;7.30;95.30;9.30;102549;;;;566082;249;24136;-86
2022/03/22 05:56:53;;;;;;;29.13;17.27;;;9.40;86.30;10.90;102556;;;;565499;249;24144;-86
2022/03/22 05:59:21;;;;;;;35.60;19.70;;;11.20;76.90;12.40;102559;;;;569994;249;24117;-83
2022/03/22 06:01:49;;;;;;;35.67;19.10;;;12.70;67.50;13.70;102559;;;;570119;249;24159;-88
2022/03/22 06:04:20;;;;;;;30.87;20.00;;;14.10;60.80;14.90;102564;;;;570092;249;24106;-86
2022/03/22 06:06:46;;;;;;;35.93;21.67;;;15.40;56.50;16.00;102564;;;;566573;252;24130;-84
2022/03/22 06:09:13;;;;;;;36.27;22.40;;;16.50;53.30;17.00;102557;;;;564885;249;24165;-84
2022/03/22 06:11:41;;;;;;;41.80;23.07;;;17.40;51.20;17.90;102568;;;;566556;249;24180;-83
2022/03/22 06:14:09;;;;;;;34.57;22.67;;;18.40;48.50;18.50;102569;;;;567156;249;24142;-83
2022/03/22 06:16:36;;;;;;;38.77;24.10;;;19.10;47.20;19.30;102577;;;;565420;252;24007;-83
2022/03/22 06:19:04;;;;;;;36.63;23.37;;;19.90;45.90;20.20;102580;;;;573705;249;23125;-86
2022/03/22 06:21:32;;;;;;;38.37;26.77;;;20.70;44.60;21.10;102581;;;;576435;249;23134;-86
2022/03/22 06:24:00;;;;;;;35.07;23.80;;;21.50;43.10;21.80;102584;;;;564899;254;24174;-87
2022/03/22 06:26:28;;;;;;;36.83;28.42;;;22.30;42.00;22.60;102590;;;;552366;254;46688;-85
2022/03/22 06:28:57;;;;;;;41.87;27.40;;;22.90;40.70;23.00;102589;;;;557252;254;24164;-85
2022/03/22 06:31:25;;;;;;;66.33;27.63;;;23.50;39.80;23.50;102592;;;;566084;253;23150;-91
2022/03/22 06:34:03;;;;;;;51.40;27.13;;;24.10;38.30;24.20;102591;;;;557966;254;24113;-86
2022/03/22 06:36:21;;;;;;;38.80;26.37;;;24.70;37.50;24.80;102596;;;;557033;254;24158;-89
2022/03/22 06:38:50;;;;;;;39.73;27.23;;;25.90;34.90;25.30;102592;;;;557397;254;23173;-84
2022/03/22 06:41:18;;;;;;;41.28;30.15;;;26.30;34.00;25.80;102598;;;;551906;254;35710;-88
2022/03/22 06:43:47;;;;;;;42.10;27.40;;;26.50;33.80;25.80;102595;;;;556498;254;24164;-87
2022/03/22 06:46:15;;;;;;;37.23;26.70;;;26.50;33.70;26.60;102601;;;;556216;254;23158;-88
2022/03/22 06:48:43;;;;;;;34.38;27.48;;;27.00;33.30;27.00;102605;;;;556225;254;23177;-84
2022/03/22 06:51:11;;;;;;;42.00;28.27;;;27.50;32.70;27.30;102608;;;;556421;254;23156;-88
2022/03/22 06:53:39;;;;;;;38.43;29.10;;;27.90;32.60;27.00;102603;;;;556585;254;23151;-84
2022/03/22 06:56:07;;;;;;;38.10;28.77;;;27.80;32.20;26.50;102605;;;;556598;254;23148;-87
2022/03/22 06:58:35;;;;;;;39.93;27.47;;;27.40;32.20;26.60;102608;;;;556667;254;24137;-88
2022/03/22 07:01:04;;;;;;;40.43;27.93;;;27.20;32.50;27.20;102611;;;;556904;254;24127;-89
2022/03/22 07:03:32;;;;;;;37.87;27.13;;;27.60;32.40;27.80;102611;;;;556597;254;23191;-88
2022/03/22 07:05:58;;;;;;;40.05;28.00;;;28.20;32.00;28.50;102619;;;;556914;254;23147;-88
2022/03/22 07:08:26;;;;;;;44.53;30.33;;;28.90;31.70;29.30;102618;;;;557018;254;23144;-89
2022/03/22 07:13:40;;;;;;;53.25;32.25;;;30.40;30.80;30.60;102618;;;;563898;254;46443;-87
2022/03/22 07:16:09;;;;;;;54.05;29.60;;;31.60;30.30;31.10;102623;;;;557192;254;23193;-91
2022/03/22 07:18:40;;;;;;;65.95;30.58;;;32.20;29.50;31.80;102619;;;;557614;254;23136;-88
2022/03/22 07:21:08;;;;;;;43.15;27.80;;;32.10;29.40;32.10;102623;;;;557802;254;23153;-88
2022/03/22 07:23:36;;;;;;;48.63;28.58;;;32.60;29.20;32.50;102625;;;;565751;253;23228;-78
2022/03/22 07:26:04;;;;;;;36.50;27.10;;;33.10;28.90;32.70;102628;;;;557460;253;23156;-81
2022/03/22 07:28:34;;;;;;;49.88;29.67;;;33.30;28.60;33.00;102619;;;;557861;254;23264;-89
2022/03/22 07:31:00;;;;;;;38.25;27.87;;;33.60;28.60;33.50;102623;;;;557214;253;23174;-83
2022/03/22 07:33:29;;;;;;;38.28;28.30;;;34.00;28.50;33.40;102621;;;;557156;254;23163;-86
2022/03/22 07:35:56;;;;;;;43.97;28.65;;;34.10;27.90;33.50;102622;;;;556726;254;23164;-82
2022/03/22 07:38:24;;;;;;;42.80;28.23;;;34.10;27.80;33.40;102624;;;;565141;253;23144;-82
2022/03/22 07:40:52;;;;;;;45.70;29.45;;;34.10;27.80;33.60;102629;;;;556801;254;23152;-81
2022/03/22 07:43:20;;;;;;;36.28;29.98;;;34.30;28.20;34.00;102626;;;;556562;254;23135;-83
2022/03/22 07:45:49;;;;;;;49.20;29.75;;;34.60;27.50;34.00;102633;;;;556620;254;23167;-84
2022/03/22 07:48:16;;;;;;;39.97;29.73;;;34.70;27.70;34.20;102632;;;;556621;254;23157;-82
2022/03/22 07:53:30;;;;;;;38.38;26.33;;;35.00;27.30;34.50;102632;;;;564652;249;24199;-81
2022/03/22 07:55:58;;;;;;;28.50;25.05;;;35.20;27.30;34.80;102645;;;;559369;249;23123;-81
2022/03/22 07:58:26;;;;;;;28.98;25.88;;;35.40;27.00;35.10;102645;;;;564389;253;23122;-81
2022/03/22 08:00:55;;;;;;;36.20;28.40;;;35.70;27.20;35.80;102638;;;;554889;253;35376;-81
2022/03/22 08:03:23;;;;;;;31.17;25.02;;;36.20;26.50;35.70;102639;;;;559503;253;23232;-82
2022/03/22 08:05:50;;;;;;;26.67;23.87;;;36.30;26.30;36.00;102643;;;;558925;253;23146;-82
2022/03/22 08:08:17;;;;;;;28.48;25.17;;;36.60;26.20;36.40;102644;;;;559070;253;23155;-83
2022/03/22 08:10:49;;;;;;;31.33;26.35;;;36.90;25.90;36.50;102649;;;;559011;253;23140;-82
2022/03/22 08:13:16;;;;;;;29.98;26.12;;;37.20;26.10;36.70;102642;;;;567293;249;23183;-81
2022/03/22 08:15:41;;;;;;;33.42;26.75;;;37.30;26.10;37.00;102641;;;;558802;253;23130;-83
2022/03/22 08:18:10;;;;;;;30.60;27.25;;;37.60;26.10;37.20;102638;;;;558869;253;23178;-83
2022/03/22 08:20:41;;;;;;;35.60;28.17;;;37.90;26.00;37.40;102641;;;;559718;253;23125;-81
2022/03/22 08:23:06;;;;;;;35.10;28.50;;;38.10;25.70;37.60;102639;;;;559763;253;23138;-80
2022/03/22 08:25:38;;;;;;;47.62;26.02;;;38.40;26.40;37.80;102647;;;;560226;253;23148;-81
2022/03/22 08:28:06;;;;;;;32.33;25.60;;;38.60;25.70;37.90;102647;;;;560033;253;24155;-83
2022/03/22 08:30:34;;;;;;;35.80;27.70;;;38.80;25.40;38.50;102649;;;;559666;253;23163;-82
2022/03/22 08:33:12;;;;;;;41.60;28.48;;;39.50;25.50;38.50;102656;;;;559444;253;23172;-83
2022/03/22 08:35:37;;;;;;;72.30;31.20;;;39.40;25.40;38.50;102650;;;;559774;252;23136;-84
2022/03/22 08:38:04;;;;;;;46.55;29.65;;;39.50;25.20;38.00;102652;;;;560028;252;23135;-83
2022/03/22 08:40:32;;;;;;;49.05;29.23;;;39.30;25.20;37.70;102646;;;;559810;252;23159;-84
2022/03/22 08:43:04;;;;;;;37.22;28.85;;;39.00;25.30;37.90;102649;;;;559861;252;23126;-83
2022/03/22 08:45:32;;;;;;;43.75;30.67;;;38.80;25.80;37.40;102641;;;;567663;248;23143;-81
2022/03/22 08:47:59;;;;;;;55.38;31.48;;;38.90;26.50;37.70;102643;;;;559491;253;23142;-82
2022/03/22 08:50:26;;;;;;;42.75;30.15;;;38.80;25.80;38.10;102642;;;;559477;253;23183;-82
2022/03/22 08:52:56;;;;;;;41.92;29.48;;;39.10;25.60;37.90;102647;;;;559459;253;23163;-82
2022/03/22 08:55:28;;;;;;;43.80;32.47;;;39.10;25.80;38.10;102649;;;;559226;253;23154;-81
2022/03/22 08:57:52;;;;;;;43.22;30.60;;;39.30;25.80;38.60;102643;;;;558849;253;24170;-83
2022/03/22 09:00:20;;;;;;;34.80;28.10;;;39.60;25.60;38.80;102641;;;;558130;253;23132;-83
2022/03/22 09:02:48;;;;;;;35.15;29.20;;;40.00;25.10;38.50;102640;;;;559029;253;23207;-82
2022/03/22 09:08:05;;;;;;;31.85;28.42;;;40.00;25.20;38.50;102643;;;;562003;249;23122;-82
2022/03/22 09:10:31;;;;;;;30.08;27.08;;;40.10;25.20;38.40;102638;;;;556227;254;23153;-82
2022/03/22 09:12:59;;;;;;;32.47;28.70;;;40.10;25.10;38.50;102641;;;;564173;254;23167;-82
2022/03/22 09:15:27;;;;;;;34.55;29.42;;;40.10;25.20;38.70;102633;;;;564372;254;23135;-82
2022/03/22 09:17:55;;;;;;;32.72;29.00;;;40.20;25.20;38.80;102643;;;;555905;254;23173;-81
2022/03/22 09:20:23;;;;;;;37.65;31.00;;;40.40;25.20;38.60;102635;;;;555794;254;24197;-81
2022/03/22 09:22:54;;;;;;;50.67;31.40;;;40.50;24.90;38.30;102630;;;;555973;254;23147;-82
2022/03/22 09:25:22;;;;;;;41.40;30.40;;;40.30;25.10;38.40;102631;;;;555727;254;23179;-82
2022/03/22 09:27:46;;;;;;;51.85;33.10;;;40.30;24.80;37.80;102626;;;;564426;254;23163;-83
2022/03/22 09:30:14;;;;;;;35.13;29.50;;;39.90;25.10;37.70;102628;;;;564547;254;23168;-82
2022/03/22 09:32:46;;;;;;;33.08;29.27;;;39.60;25.10;37.40;102639;;;;564604;254;24180;-82
2022/03/22 09:35:13;;;;;;;40.78;30.42;;;39.30;24.90;36.00;102625;;;;556321;254;23164;-82
2022/03/22 09:37:45;;;;;;;50.08;32.00;;;38.40;25.10;34.70;102617;;;;556309;254;23152;-81
2022/03/22 09:40:10;;;;;;;40.15;33.17;;;35.90;26.30;33.30;102624;;;;555016;254;23172;-82
2022/03/22 09:42:42;;;;;;;41.55;32.53;;;34.30;27.00;31.50;102618;;;;555789;254;24204;-81
2022/03/22 09:45:10;;;;;;;39.30;33.47;;;32.80;27.50;30.00;102607;;;;559239;254;35648;-82
2022/03/22 09:47:38;;;;;;;35.40;29.08;;;32.70;27.50;29.00;102615;;;;557084;253;23172;-82
2022/03/22 09:50:12;;;;;;;32.00;28.52;;;31.40;28.30;28.40;102600;;;;568990;250;24133;-82
2022/03/22 09:52:40;;;;;;;35.83;29.33;;;29.50;29.30;27.70;102601;;;;564619;249;23161;-82
2022/03/22 09:55:06;;;;;;;35.63;25.40;;;28.70;29.60;27.10;102601;;;;564605;254;24194;-83
2022/03/22 09:57:34;;;;;;;29.50;22.35;;;28.60;29.50;27.00;102595;;;;563723;254;24187;-82
2022/03/22 10:00:02;;;;;;;27.73;23.77;;;28.30;29.20;27.00;102586;;;;563592;254;23155;-83
2022/03/22 10:02:30;;;;;;;35.65;24.23;;;28.10;29.50;27.10;102585;;;;556559;254;24214;-82
2022/03/22 10:04:58;;;;;;;45.45;23.87;;;28.30;29.50;26.70;102578;;;;564586;253;23146;-82
2022/03/22 10:07:27;;;;;;;30.83;23.08;;;28.00;29.60;26.30;102581;;;;556511;254;23180;-81
2022/03/22 10:10:02;;;;;;;30.27;22.00;;;27.60;29.70;26.20;102582;;;;564526;254;23206;-83
2022/03/22 10:12:30;;;;;;;28.52;22.13;;;27.40;29.70;26.20;102570;;;;563254;254;23163;-82
2022/03/22 10:15:10;;;;;;;41.05;22.08;;;27.50;29.60;25.90;102580;;;;555999;254;24186;-85
2022/03/22 10:17:38;;;;;;;23.50;19.87;;;27.30;29.50;25.10;102571;;;;563553;254;23175;-83
2022/03/22 10:20:06;;;;;;;33.77;21.70;;;26.70;29.60;24.50;102564;;;;556406;253;23148;-84
2022/03/22 10:22:34;;;;;;;31.80;21.40;;;26.00;30.00;23.90;102573;;;;563426;254;23165;-85
2022/03/22 10:25:02;;;;;;;33.87;20.00;;;25.40;31.20;23.50;102555;;;;564119;250;23148;-83
2022/03/22 10:27:30;;;;;;;29.30;20.87;;;24.90;31.20;22.60;102557;;;;555693;254;23257;-82
2022/03/22 10:29:58;;;;;;;30.83;20.77;;;24.20;31.90;21.60;102544;;;;555775;254;24124;-82
2022/03/22 10:32:37;;;;;;;27.13;19.17;;;23.20;32.70;20.70;102546;;;;564556;254;24171;-84
2022/03/22 10:35:14;;;;;;;30.70;20.43;;;22.20;33.70;19.90;102540;;;;556361;254;24213;-82
2022/03/22 10:37:46;;;;;;;34.63;20.43;;;21.30;35.00;19.50;102540;;;;563373;251;23170;-82
2022/03/22 10:40:28;;;;;;;28.53;19.03;;;20.60;36.00;19.10;102534;;;;555945;254;23156;-82
2022/03/22 10:43:08;;;;;;;24.63;13.73;;;20.10;36.80;18.80;102521;;;;555637;254;24187;-81
2022/03/22 10:46:01;;;;;;;42.30;13.10;;;19.30;36.40;18.60;102516;;;;555920;254;24228;-83
2022/03/22 10:48:19;;;;;;;33.30;13.77;;;19.30;36.40;18.20;102520;;;;562630;254;24187;-83
2022/03/22 10:50:50;;;;;;;24.23;12.40;;;19.00;36.00;17.80;102512;;;;562786;254;24191;-82
2022/03/22 10:53:18;;;;;;;20.83;12.40;;;18.60;36.20;17.40;102511;;;;563984;254;24229;-82
2022/03/22 10:55:46;;;;;;;29.17;11.77;;;18.10;36.90;17.10;102504;;;;557990;249;24152;-83
2022/03/22 10:58:17;;;;;;;21.33;11.10;;;17.80;37.40;16.90;102496;;;;574646;248;24116;-82
2022/03/22 11:00:44;;;;;;;31.70;11.97;;;17.50;37.40;16.60;102493;;;;575490;248;24184;-84
2022/03/22 11:03:17;;;;;;;46.30;12.73;;;17.00;38.70;16.40;102495;;;;566447;249;24128;-84
2022/03/22 11:05:42;;;;;;;25.23;11.40;;;16.90;38.00;16.30;102484;;;;566226;249;24211;-85
2022/03/22 11:08:10;;;;;;;16.33;10.03;;;16.70;37.90;16.10;102479;;;;566638;249;24176;-85
2022/03/22 11:10:38;;;;;;;20.40;10.80;;;16.60;37.80;15.90;102485;;;;567129;249;24102;-84
2022/03/22 11:13:06;;;;;;;49.00;12.53;;;16.50;37.80;15.70;102477;;;;575469;249;24200;-85
2022/03/22 11:15:34;;;;;;;28.77;10.63;;;16.30;38.20;15.60;102478;;;;567042;249;24113;-85
2022/03/22 11:18:02;;;;;;;30.30;11.67;;;16.20;38.30;15.40;102472;;;;565683;249;24120;-87
2022/03/22 11:20:30;;;;;;;14.73;9.47;;;16.00;38.30;15.30;102476;;;;566422;249;24157;-86
2022/03/22 11:23:00;;;;;;;15.20;9.07;;;15.90;39.10;15.20;102468;;;;574713;245;24161;-85
2022/03/22 11:25:34;;;;;;;24.33;11.83;;;15.80;39.20;15.10;102460;;;;574826;249;24138;-84
2022/03/22 11:28:00;;;;;;;36.60;13.53;;;15.80;38.90;15.10;102461;;;;566287;249;24114;-84
2022/03/22 11:30:28;;;;;;;22.07;11.10;;;15.70;39.70;15.00;102462;;;;565324;249;24105;-85
2022/03/22 11:35:48;;;;;;;18.93;11.60;;;15.60;40.00;14.90;102449;;;;566025;249;24135;-83
2022/03/22 11:38:34;;;;;;;27.67;14.38;;;15.50;40.20;14.80;102448;;;;560735;249;35512;-82